Airfield :
LOGIN :

Register | Disclaimer

   EN    FR    IT 

 










Legend :    VFR   Marginal VFR   IFR   Intensive IFR   Very Intensive IFR
Visi :
Ceiling :
>= 8 km
>= 3000ft
5 to 8 km
1000 to 3000 ft
1500m to 5 km
500 to 1000 ft
800 to 1500m
200 to 500 ft
< 800m
< 200 ft
Symbols :   Thunderstorms  Fog  Heavy snow  Heavy precipitations  Wind > 20 kt
SIGMETs :     Misc.  Thunderstorms  Icing  Turbulence  Mountain Waves  Volcanic Ashes






- Airport Elevation : 353 ft
- IATA code : ZAG


LDZA - Zagreb Pleso

CURRENT METAR :
  • 050000Z 23008KT CAVOK 09/02 Q1015 NOSIG

EXPIRED METARs :
  • 042330Z 23008KT CAVOK 09/02 Q1015 NOSIG
  • 042300Z 23011KT CAVOK 09/02 Q1015 NOSIG
  • 042230Z 23010KT CAVOK 09/02 Q1015 NOSIG
  • 042200Z 23012KT CAVOK 09/02 Q1016 NOSIG
  • 042130Z 23008KT CAVOK 09/02 Q1016 NOSIG

TAF TAF LDZA
Valid from the 05 at 00:00 until the 06 at 00:00 UTC


042325Z 0500/0600 23008KT 9999 FEW045 TX15/0512Z TN03/0523Z
PROB40 0500/0508 VRB02KT
BECMG 0513/0515 03015KT
PROB30
TEMPO 0513/0520 TSRAGS SCT020 FEW045CB
PROB40
TEMPO 0514/0518 03018G30KT
BECMG 0520/0522 03005KT
ATIS : +385 1 6-259-214



MET'MAP, your aeronautical weather chart ! - Copyright ORBIFLY December 2007 - Disclaimer

ORBIFLY MET'MAP TEAM :

Programming & Development : Alexandra Zaïnal
Concept & original design : Baudouin d'Aumeries
Assistance for programming : Marc-Olivier Méhu
Technical & hardware support : Manuel Goepfert

Contact : metmap@orbifly.com




SOURCES & CREDITS :

   NOAA